Time;durP1;ratioP1;P1;durP2;ratioP2;P2;SDS_P1;SDS_P2;PMS_P1;PMS_P2;Temp;Humidity;BMP_temperature;BMP_pressure;BME280_temperature;BME280_humidity;BME280_pressure;Samples;Min_cycle;Max_cycle;Signal;HPM_P1;HPM_P2
2022/02/25 00:02:12;;;;;;;52.53;26.88;;;;;;;7.46;38.99;95492.66;4951406;29;20282;-65
2022/02/25 00:04:41;;;;;;;48.05;23.25;;;;;;;6.76;40.31;95491.50;4950899;29;20207;-67
2022/02/25 00:07:08;;;;;;;49.03;21.45;;;;;;;6.06;42.45;95482.38;4951102;29;20203;-66
2022/02/25 00:09:35;;;;;;;32.67;16.80;;;;;;;6.03;41.95;95486.19;4950897;29;20370;-66
2022/02/25 00:12:02;;;;;;;36.17;17.05;;;;;;;5.76;42.54;95481.38;4951322;29;20207;-65
2022/02/25 00:14:29;;;;;;;30.25;17.42;;;;;;;6.60;40.90;95485.09;4950718;29;20233;-68
2022/02/25 00:16:56;;;;;;;29.38;13.52;;;;;;;6.59;40.88;95482.66;4951075;29;20223;-66
2022/02/25 00:19:23;;;;;;;25.80;12.90;;;;;;;6.40;40.67;95455.84;4951183;29;20219;-65
2022/02/25 00:21:51;;;;;;;23.45;13.00;;;;;;;5.80;41.81;95478.13;4951652;29;20204;-68
2022/02/25 00:24:25;;;;;;;28.60;14.57;;;;;;;5.74;42.64;95468.59;4903473;29;20211;-66
2022/02/25 00:26:51;;;;;;;40.28;19.02;;;;;;;6.17;41.46;95455.66;4952135;29;20204;-67
2022/02/25 00:29:18;;;;;;;40.00;18.85;;;;;;;6.25;41.69;95463.19;4950746;29;20200;-64
2022/02/25 00:31:47;;;;;;;39.70;19.05;;;;;;;5.82;42.99;95467.53;4933750;29;20757;-65
2022/02/25 00:34:14;;;;;;;33.30;18.83;;;;;;;6.23;42.19;95460.00;4950835;29;20195;-66
2022/02/25 00:36:41;;;;;;;40.58;21.17;;;;;;;6.30;42.01;95454.72;4951073;29;20196;-66
2022/02/25 00:39:08;;;;;;;41.47;21.77;;;;;;;6.09;42.06;95450.72;4950446;29;20612;-66
2022/02/25 00:41:35;;;;;;;46.22;21.83;;;;;;;5.74;43.28;95454.78;4950986;29;20231;-66
2022/02/25 00:44:03;;;;;;;38.90;21.00;;;;;;;6.62;41.46;95444.00;4950656;29;20259;-67
2022/02/25 00:46:30;;;;;;;40.80;20.00;;;;;;;6.74;40.94;95450.06;4950893;29;20224;-69
2022/02/25 00:48:57;;;;;;;36.72;20.27;;;;;;;6.81;40.50;95445.56;4950469;29;20292;-66
2022/02/25 00:51:23;;;;;;;44.65;19.48;;;;;;;6.96;40.21;95439.97;4950981;29;20290;-68
2022/02/25 00:53:53;;;;;;;39.70;18.60;;;;;;;7.03;40.36;95438.09;4950530;29;20188;-66
2022/02/25 00:56:21;;;;;;;34.83;17.63;;;;;;;7.04;40.57;95442.28;4951202;29;20203;-66
2022/02/25 00:58:48;;;;;;;40.90;17.63;;;;;;;6.91;40.35;95440.66;4950686;28;20220;-64
2022/02/25 01:01:15;;;;;;;40.50;21.15;;;;;;;7.05;40.18;95442.06;4954834;29;20693;-65
2022/02/25 01:03:43;;;;;;;53.17;26.65;;;;;;;6.79;40.66;95437.19;4954077;29;20188;-65
2022/02/25 01:06:10;;;;;;;67.57;33.60;;;;;;;6.65;41.50;95435.75;4954316;29;20214;-66
2022/02/25 01:08:37;;;;;;;77.75;39.25;;;;;;;6.58;41.37;95435.03;4953874;29;20311;-65
2022/02/25 01:11:04;;;;;;;95.00;44.60;;;;;;;6.63;41.27;95432.56;4954541;29;20270;-67
2022/02/25 01:13:31;;;;;;;144.18;67.18;;;;;;;6.74;41.06;95433.63;4953643;29;20172;-68
2022/02/25 01:15:59;;;;;;;147.07;69.90;;;;;;;6.69;41.15;95423.88;4954424;29;20196;-65
2022/02/25 01:18:25;;;;;;;149.95;67.53;;;;;;;6.72;41.31;95423.44;4954168;29;20227;-64
2022/02/25 01:20:52;;;;;;;151.05;71.63;;;;;;;6.44;41.37;95423.13;4954290;29;20254;-67
2022/02/25 01:23:19;;;;;;;146.50;69.47;;;;;;;6.34;41.83;95428.06;4954238;29;20212;-65
2022/02/25 01:25:46;;;;;;;140.18;63.25;;;;;;;6.28;41.68;95428.91;4953436;29;20196;-66
2022/02/25 01:28:13;;;;;;;135.88;62.78;;;;;;;6.45;41.49;95419.53;4954056;29;20200;-64
2022/02/25 01:30:40;;;;;;;131.27;61.63;;;;;;;6.40;41.83;95410.78;4953802;29;20222;-67
2022/02/25 01:33:07;;;;;;;135.15;62.83;;;;;;;6.38;41.39;95412.81;4954420;29;20196;-65
2022/02/25 01:35:35;;;;;;;128.02;61.05;;;;;;;6.31;42.26;95418.09;4953658;29;20196;-66
2022/02/25 01:38:02;;;;;;;128.40;60.35;;;;;;;6.41;41.79;95420.97;4954002;29;20666;-65
2022/02/25 01:40:29;;;;;;;129.65;59.83;;;;;;;6.28;42.10;95408.09;4954679;29;20184;-64
2022/02/25 01:42:56;;;;;;;133.75;61.78;;;;;;;6.33;41.95;95400.47;4955696;29;20224;-65
2022/02/25 01:45:23;;;;;;;133.07;61.38;;;;;;;6.31;42.25;95405.09;4955770;29;20680;-65
2022/02/25 01:47:50;;;;;;;123.18;58.03;;;;;;;6.24;42.12;95390.56;4954144;29;20212;-67
2022/02/25 01:50:17;;;;;;;122.40;57.70;;;;;;;6.19;42.21;95404.19;4953533;29;20204;-68
2022/02/25 01:53:13;;;;;;;112.00;54.38;;;;;;;6.34;41.74;95396.84;4953455;29;20239;-68
2022/02/25 01:55:42;;;;;;;108.97;52.50;;;;;;;6.05;42.53;95397.53;4949112;29;20207;-65
2022/02/25 01:58:09;;;;;;;101.72;51.85;;;;;;;6.02;41.86;95392.78;4953200;29;20291;-63
2022/02/25 02:00:37;;;;;;;103.75;49.35;;;;;;;5.99;42.42;95406.19;4952890;29;20184;-65
2022/02/25 02:03:05;;;;;;;91.40;45.97;;;;;;;6.08;42.15;95402.31;4952942;29;20283;-64
2022/02/25 02:05:33;;;;;;;85.28;44.15;;;;;;;6.08;42.28;95399.69;4952720;29;20303;-64
2022/02/25 02:08:00;;;;;;;85.35;44.08;;;;;;;6.10;41.92;95387.28;4953411;29;20588;-66
2022/02/25 02:10:27;;;;;;;79.15;41.25;;;;;;;6.31;41.97;95392.06;4953920;28;20196;-66
2022/02/25 02:12:54;;;;;;;73.85;38.55;;;;;;;6.15;42.06;95377.00;4955686;29;20587;-65
2022/02/25 02:15:21;;;;;;;77.97;38.58;;;;;;;6.21;41.96;95386.56;4953816;29;20259;-66
2022/02/25 02:17:48;;;;;;;72.60;37.30;;;;;;;6.27;41.53;95390.91;4955507;29;20227;-65
2022/02/25 02:20:15;;;;;;;69.07;36.00;;;;;;;5.90;42.21;95391.88;4954750;29;20207;-65
2022/02/25 02:22:42;;;;;;;73.50;36.47;;;;;;;5.79;42.84;95382.13;4955119;29;20557;-65
2022/02/25 02:25:09;;;;;;;68.93;35.22;;;;;;;6.04;42.33;95382.91;4953028;29;20247;-66
2022/02/25 02:30:21;;;;;;;65.95;33.47;;;;;;;5.90;42.49;95381.47;4954121;29;20211;-67
2022/02/25 02:32:48;;;;;;;65.88;32.53;;;;;;;5.73;42.45;95388.22;4954587;29;20208;-64
2022/02/25 02:35:15;;;;;;;57.45;29.23;;;;;;;5.82;42.57;95381.72;4952928;29;20196;-66
2022/02/25 02:37:42;;;;;;;54.97;28.55;;;;;;;5.85;42.53;95382.13;4952716;29;20216;-66
2022/02/25 02:40:10;;;;;;;57.42;27.83;;;;;;;6.08;42.12;95377.09;4952364;29;20192;-68
2022/02/25 02:42:37;;;;;;;56.08;28.35;;;;;;;6.04;41.90;95380.31;4952479;29;20196;-66
2022/02/25 02:45:04;;;;;;;52.25;26.98;;;;;;;5.40;43.43;95387.66;4952413;29;20200;-65
2022/02/25 02:47:31;;;;;;;49.20;24.90;;;;;;;5.57;43.00;95367.91;4952423;29;20199;-65
2022/02/25 02:49:58;;;;;;;54.13;25.48;;;;;;;5.14;44.11;95373.06;4952306;29;20204;-65
2022/02/25 02:52:25;;;;;;;45.85;24.85;;;;;;;5.46;43.44;95369.41;4952775;29;20203;-65
2022/02/25 02:54:52;;;;;;;48.83;25.42;;;;;;;5.56;43.06;95366.34;4952321;29;20274;-65
2022/02/25 02:57:20;;;;;;;47.65;26.25;;;;;;;5.58;42.90;95374.72;4952214;29;20204;-67
2022/02/25 02:59:47;;;;;;;51.92;25.58;;;;;;;5.56;42.98;95369.75;4951921;29;20255;-67
2022/02/25 03:02:14;;;;;;;46.75;24.30;;;;;;;5.58;42.82;95365.13;4952402;29;20192;-65
2022/02/25 03:04:42;;;;;;;44.38;24.20;;;;;;;5.76;42.50;95377.38;4951605;29;20206;-68
2022/02/25 03:07:10;;;;;;;52.50;25.10;;;;;;;5.86;42.09;95375.91;4935295;29;20568;-67
2022/02/25 03:09:37;;;;;;;59.38;27.80;;;;;;;6.07;41.32;95370.31;4951947;29;20726;-64
2022/02/25 03:12:07;;;;;;;45.92;25.20;;;;;;;5.76;42.17;95372.97;4952599;29;20231;-67
2022/02/25 03:14:36;;;;;;;47.92;24.50;;;;;;;5.73;42.24;95373.38;4951354;29;20240;-64
2022/02/25 03:17:04;;;;;;;45.67;22.38;;;;;;;5.73;42.15;95362.22;4951989;29;20204;-67
2022/02/25 03:19:31;;;;;;;43.15;22.83;;;;;;;5.69;41.96;95374.03;4951463;29;20232;-65
2022/02/25 03:21:58;;;;;;;46.28;23.17;;;;;;;5.51;42.40;95368.78;4951083;28;20640;-66
2022/02/25 03:24:25;;;;;;;45.30;22.77;;;;;;;5.47;42.66;95373.63;4951620;29;20203;-65
2022/02/25 03:26:52;;;;;;;40.78;22.20;;;;;;;5.44;42.33;95373.25;4951939;29;20599;-66
2022/02/25 03:29:18;;;;;;;45.13;22.70;;;;;;;5.45;42.46;95364.44;4951757;29;20212;-65
2022/02/25 03:31:45;;;;;;;42.58;21.35;;;;;;;5.40;42.84;95372.06;4952251;29;20243;-67
2022/02/25 03:34:15;;;;;;;40.85;21.98;;;;;;;5.35;42.77;95374.50;4951752;29;20199;-68
2022/02/25 03:36:41;;;;;;;45.58;23.05;;;;;;;5.47;42.75;95378.00;4952282;29;20610;-62
2022/02/25 03:39:08;;;;;;;49.55;24.40;;;;;;;5.28;43.13;95389.34;4951851;29;20239;-66
2022/02/25 03:41:36;;;;;;;50.67;25.50;;;;;;;5.49;42.54;95381.97;4952226;29;20212;-67
2022/02/25 03:44:03;;;;;;;46.13;23.92;;;;;;;5.52;42.80;95370.38;4952437;29;20196;-65
2022/02/25 03:46:30;;;;;;;50.75;23.92;;;;;;;5.50;42.64;95380.19;4952757;29;20290;-67
2022/02/25 03:48:57;;;;;;;49.67;25.08;;;;;;;5.30;42.62;95388.13;4951675;29;20735;-67
2022/02/25 03:51:26;;;;;;;47.33;24.92;;;;;;;5.35;43.34;95390.06;4951974;29;20173;-66
2022/02/25 03:53:53;;;;;;;43.10;23.67;;;;;;;5.33;43.06;95386.91;4951054;29;20192;-67
2022/02/25 03:56:21;;;;;;;42.97;23.17;;;;;;;5.45;42.58;95395.63;4952138;29;20287;-65
2022/02/25 03:58:48;;;;;;;44.95;23.23;;;;;;;5.28;42.90;95395.34;4951826;29;20234;-65
2022/02/25 04:01:15;;;;;;;47.75;24.35;;;;;;;5.35;42.82;95384.88;4951953;29;20203;-66
2022/02/25 04:03:42;;;;;;;48.42;24.10;;;;;;;5.40;42.86;95385.06;4952288;29;20204;-63
2022/02/25 04:06:09;;;;;;;41.78;22.40;;;;;;;5.36;42.68;95381.28;4956705;29;20307;-64
2022/02/25 04:08:36;;;;;;;47.97;23.85;;;;;;;5.34;42.96;95402.28;4939133;29;20716;-65
2022/02/25 04:11:03;;;;;;;48.58;24.45;;;;;;;4.91;43.88;95409.94;4958599;29;20643;-68
2022/02/25 04:13:30;;;;;;;45.60;23.85;;;;;;;4.76;43.67;95403.44;4957498;29;20749;-65
2022/02/25 04:15:57;;;;;;;43.13;23.38;;;;;;;5.12;43.38;95409.63;4959327;29;20251;-63
2022/02/25 04:18:24;;;;;;;44.17;22.95;;;;;;;5.09;43.40;95397.03;4958868;29;20230;-64
2022/02/25 04:20:51;;;;;;;44.50;23.75;;;;;;;5.18;43.22;95402.00;4957963;29;20192;-64
2022/02/25 04:23:17;;;;;;;45.08;24.17;;;;;;;5.20;43.22;95407.78;4956512;29;20641;-66
2022/02/25 04:25:44;;;;;;;43.28;23.65;;;;;;;5.19;43.21;95414.78;4954967;29;20235;-64
2022/02/25 04:28:12;;;;;;;47.10;24.48;;;;;;;4.89;43.41;95404.16;4952675;29;20234;-66
2022/02/25 04:30:39;;;;;;;43.22;22.92;;;;;;;5.12;43.47;95406.22;4951571;29;20246;-66
2022/02/25 04:33:06;;;;;;;42.78;21.77;;;;;;;5.12;43.46;95398.44;4952074;28;20589;-67
2022/02/25 04:35:33;;;;;;;41.00;21.35;;;;;;;5.22;43.14;95398.75;4954467;29;20275;-65
2022/02/25 04:38:00;;;;;;;51.47;23.40;;;;;;;5.29;42.73;95399.53;4954990;29;20224;-68
2022/02/25 04:40:27;;;;;;;57.35;30.67;;;;;;;4.82;43.46;95380.03;4954993;29;20254;-67
2022/02/25 04:42:54;;;;;;;57.83;34.05;;;;;;;4.67;43.90;95402.84;4955396;29;20204;-67
2022/02/25 04:45:22;;;;;;;66.03;35.63;;;;;;;4.65;43.87;95399.66;4954199;29;20192;-67
2022/02/25 04:47:49;;;;;;;71.47;37.97;;;;;;;4.50;44.23;95399.16;4955182;29;20207;-67
2022/02/25 04:50:16;;;;;;;75.15;41.58;;;;;;;4.63;43.84;95396.50;4954536;29;20204;-69
2022/02/25 04:52:44;;;;;;;76.20;44.33;;;;;;;4.56;43.98;95389.75;4954618;29;20204;-64
2022/02/25 04:55:11;;;;;;;80.85;47.08;;;;;;;4.55;44.47;95383.75;4954126;29;20204;-67
2022/02/25 04:57:41;;;;;;;94.32;51.15;;;;;;;4.34;44.81;95391.81;4954705;29;20214;-65
2022/02/25 05:00:13;;;;;;;98.88;53.50;;;;;;;4.36;44.31;95382.00;4953520;28;20286;-63
2022/02/25 05:02:44;;;;;;;93.20;50.08;;;;;;;4.41;44.44;95387.41;4952787;28;20202;-67
2022/02/25 05:05:12;;;;;;;85.47;45.25;;;;;;;4.48;44.14;95382.97;4953309;28;20200;-65
2022/02/25 05:07:41;;;;;;;73.70;38.80;;;;;;;4.36;44.46;95356.06;4953649;28;20200;-65
2022/02/25 05:10:09;;;;;;;68.57;36.38;;;;;;;4.39;44.84;95363.47;4953314;28;20215;-69
2022/02/25 05:12:36;;;;;;;59.13;33.08;;;;;;;4.47;44.53;95359.84;4953824;28;20648;-67
2022/02/25 05:20:36;;;;;;;55.80;31.67;;;;;;;4.82;43.81;95374.84;4953708;29;20212;-66
2022/02/25 05:23:06;;;;;;;52.97;30.70;;;;;;;4.73;44.21;95364.88;4953708;28;20195;-65
2022/02/25 05:25:33;;;;;;;60.63;31.90;;;;;;;4.73;43.87;95383.88;4953688;29;20258;-65
2022/02/25 05:28:00;;;;;;;63.63;32.70;;;;;;;4.99;43.91;95385.53;4954095;29;20251;-67
2022/02/25 05:30:28;;;;;;;65.95;31.88;;;;;;;5.05;43.26;95369.91;4953195;29;20199;-64
2022/02/25 05:32:55;;;;;;;55.20;32.28;;;;;;;5.00;43.82;95393.09;4954142;29;20196;-67
2022/02/25 05:35:22;;;;;;;62.80;33.17;;;;;;;4.95;44.00;95390.34;4953589;29;20631;-66
2022/02/25 05:37:50;;;;;;;59.58;32.63;;;;;;;5.00;43.72;95395.69;4954086;29;20580;-69
2022/02/25 05:40:19;;;;;;;62.38;33.35;;;;;;;5.08;43.78;95390.28;4953209;29;20358;-67
2022/02/25 05:42:47;;;;;;;68.38;36.80;;;;;;;4.93;44.24;95400.13;4954223;29;20200;-66
2022/02/25 05:45:15;;;;;;;58.15;34.53;;;;;;;5.05;43.91;95375.09;4952217;28;20211;-67
2022/02/25 05:47:43;;;;;;;71.05;35.92;;;;;;;5.14;44.02;95399.03;4953118;28;20295;-64
2022/02/25 05:50:14;;;;;;;65.63;36.55;;;;;;;5.51;43.48;95397.38;4952864;28;20707;-65
2022/02/25 05:52:42;;;;;;;71.50;40.85;;;;;;;5.39;44.20;95380.88;4953003;29;20242;-68
2022/02/25 05:55:16;;;;;;;65.40;37.95;;;;;;;5.53;43.68;95387.56;4952373;29;20212;-72
2022/02/25 05:57:44;;;;;;;70.63;39.70;;;;;;;5.54;43.58;95397.75;4953076;29;20680;-66
2022/02/25 06:00:13;;;;;;;75.20;42.22;;;;;;;5.66;43.83;95403.84;4953494;29;20204;-67
2022/02/25 06:02:42;;;;;;;71.50;40.92;;;;;;;5.67;43.42;95383.84;4954698;29;20203;-67
2022/02/25 06:05:09;;;;;;;75.82;41.55;;;;;;;5.79;43.64;95395.13;4952837;29;20671;-66
2022/02/25 06:07:37;;;;;;;73.68;42.38;;;;;;;6.04;42.88;95385.53;4953374;29;20196;-65
2022/02/25 06:10:05;;;;;;;70.43;42.17;;;;;;;6.23;42.62;95394.16;4952546;29;20232;-69
2022/02/25 06:12:31;;;;;;;86.60;47.08;;;;;;;6.35;42.80;95398.41;4953141;29;20227;-63
2022/02/25 06:14:59;;;;;;;98.07;49.97;;;;;;;6.40;42.88;95398.59;4952228;29;20243;-65
2022/02/25 06:17:26;;;;;;;99.00;54.08;;;;;;;6.47;42.79;95391.50;4953462;29;20206;-67
2022/02/25 06:19:52;;;;;;;106.78;58.42;;;;;;;6.50;42.60;95391.03;4952486;29;20355;-68
2022/02/25 06:22:20;;;;;;;117.28;63.60;;;;;;;6.60;42.96;95388.75;4952925;29;20200;-68
2022/02/25 06:24:47;;;;;;;101.40;55.10;;;;;;;6.26;43.22;95378.91;4952789;29;20200;-67
2022/02/25 06:27:14;;;;;;;105.05;57.03;;;;;;;6.04;43.84;95382.91;4952799;28;20200;-65
2022/02/25 06:29:41;;;;;;;84.20;48.35;;;;;;;5.91;44.34;95377.88;4952306;29;20231;-69
2022/02/25 06:32:08;;;;;;;83.95;51.67;;;;;;;6.02;44.97;95380.53;4952948;29;20303;-69
2022/02/25 06:34:38;;;;;;;98.10;54.78;;;;;;;5.73;45.29;95383.78;4951173;29;20200;-70
2022/02/25 06:37:05;;;;;;;99.28;55.55;;;;;;;5.71;45.00;95385.03;4951707;29;20207;-69
2022/02/25 06:39:32;;;;;;;132.43;61.53;;;;;;;6.02;45.10;95382.38;4951623;29;20204;-68
2022/02/25 06:41:59;;;;;;;128.70;76.28;;;;;;;6.12;44.64;95382.66;4952296;29;20247;-67
2022/02/25 06:44:25;;;;;;;134.43;77.45;;;;;;;7.01;43.28;95388.81;4951551;29;20206;-70
2022/02/25 06:46:52;;;;;;;137.73;75.30;;;;;;;6.86;43.35;95391.00;4952455;29;20206;-67
2022/02/25 06:49:19;;;;;;;121.95;71.05;;;;;;;7.07;42.59;95393.16;4951775;29;20291;-69
2022/02/25 06:51:46;;;;;;;112.68;64.70;;;;;;;7.22;43.02;95384.13;4952199;29;20596;-69
2022/02/25 06:54:13;;;;;;;110.13;62.40;;;;;;;7.36;42.38;95390.72;4951958;29;20208;-69
2022/02/25 06:56:40;;;;;;;108.47;59.20;;;;;;;7.39;42.29;95390.28;4952110;28;20200;-68
2022/02/25 06:59:07;;;;;;;113.35;58.33;;;;;;;6.94;42.96;95401.13;4951681;29;20251;-68
2022/02/25 07:01:34;;;;;;;101.63;53.75;;;;;;;7.03;43.39;95385.97;4952284;29;20203;-68
2022/02/25 07:04:01;;;;;;;105.28;54.63;;;;;;;6.51;44.05;95384.84;4951852;29;20266;-68
2022/02/25 07:06:28;;;;;;;100.85;52.88;;;;;;;6.28;44.76;95376.88;4952665;29;20289;-67
2022/02/25 07:08:55;;;;;;;100.40;51.55;;;;;;;7.18;43.27;95389.78;4952126;29;20318;-67
2022/02/25 07:11:22;;;;;;;91.25;49.45;;;;;;;7.11;43.45;95390.88;4952228;29;20282;-67
2022/02/25 07:13:49;;;;;;;103.10;50.53;;;;;;;7.17;43.12;95388.19;4951341;29;20852;-70
2022/02/25 07:16:16;;;;;;;81.15;46.30;;;;;;;7.22;43.32;95378.91;4951825;29;20235;-71
2022/02/25 07:18:43;;;;;;;79.05;42.17;;;;;;;7.32;43.32;95400.03;4951761;29;20208;-67
2022/02/25 07:21:11;;;;;;;74.35;40.08;;;;;;;7.22;43.32;95377.88;4952278;29;20226;-72
2022/02/25 07:23:39;;;;;;;68.57;37.15;;;;;;;7.08;42.46;95389.50;4952267;29;20188;-71
2022/02/25 07:26:10;;;;;;;58.58;31.55;;;;;;;7.59;42.44;95396.00;4952228;29;20196;-69
2022/02/25 07:28:37;;;;;;;44.67;24.95;;;;;;;7.59;42.19;95388.19;4954149;29;20223;-69
2022/02/25 07:31:04;;;;;;;42.38;25.30;;;;;;;7.69;42.39;95383.19;4954729;29;20207;-70
2022/02/25 07:33:31;;;;;;;37.45;21.85;;;;;;;7.95;41.52;95387.97;4951718;29;20644;-69
2022/02/25 07:35:58;;;;;;;42.78;22.73;;;;;;;7.97;41.67;95388.56;4952017;29;20322;-67
2022/02/25 07:38:26;;;;;;;49.97;24.67;;;;;;;7.98;41.19;95390.13;4952361;29;20207;-71
2022/02/25 07:40:52;;;;;;;53.97;29.10;;;;;;;8.33;40.61;95404.00;4951827;29;20211;-67
2022/02/25 07:43:22;;;;;;;38.22;21.35;;;;;;;7.93;40.90;95393.44;4952046;29;20279;-69
2022/02/25 07:45:50;;;;;;;40.78;20.70;;;;;;;8.17;41.19;95400.22;4934263;29;20715;-68
2022/02/25 07:48:19;;;;;;;50.22;27.98;;;;;;;8.58;40.45;95386.25;4934633;29;20614;-69
2022/02/25 07:50:47;;;;;;;48.63;25.17;;;;;;;8.50;40.10;95363.13;4952679;29;20243;-67
2022/02/25 07:53:16;;;;;;;57.75;29.77;;;;;;;8.83;39.62;95384.13;4952593;29;20196;-70
2022/02/25 07:55:45;;;;;;;46.63;27.80;;;;;;;9.00;39.71;95384.19;4951091;29;20238;-69
2022/02/25 07:58:13;;;;;;;50.88;28.38;;;;;;;8.80;40.31;95379.38;4951525;29;20200;-66
2022/02/25 08:00:40;;;;;;;53.22;28.17;;;;;;;8.76;40.39;95380.84;4951289;29;20591;-67
2022/02/25 08:03:07;;;;;;;52.67;28.55;;;;;;;8.86;39.79;95391.53;4951172;29;20612;-68
2022/02/25 08:05:34;;;;;;;47.05;27.05;;;;;;;9.02;39.80;95382.13;4950972;29;20206;-68
2022/02/25 08:08:04;;;;;;;43.45;24.83;;;;;;;8.76;39.59;95378.25;4953340;28;20694;-68
2022/02/25 08:10:32;;;;;;;48.25;22.65;;;;;;;9.07;39.20;95375.19;4957493;29;20230;-69
2022/02/25 08:13:01;;;;;;;47.25;20.58;;;;;;;8.84;38.67;95364.81;4957671;28;20259;-66
2022/02/25 08:15:33;;;;;;;34.45;20.25;;;;;;;9.26;38.80;95356.66;4957264;29;20232;-69
2022/02/25 08:18:06;;;;;;;36.10;19.83;;;;;;;9.32;38.88;95346.06;4957782;29;20210;-66
2022/02/25 08:20:36;;;;;;;47.17;22.50;;;;;;;9.66;38.11;95341.63;4957341;28;20199;-68
2022/02/25 08:23:04;;;;;;;39.85;20.30;;;;;;;8.25;39.09;95359.94;4957534;29;20196;-67
2022/02/25 08:25:34;;;;;;;33.88;21.15;;;;;;;9.11;39.25;95350.16;4957565;28;20328;-65
2022/02/25 08:28:01;;;;;;;36.67;18.98;;;;;;;9.70;38.08;95355.84;4957797;28;20211;-69
2022/02/25 08:30:28;;;;;;;33.03;19.02;;;;;;;10.23;37.43;95343.03;4956841;29;20705;-69
2022/02/25 08:33:00;;;;;;;39.28;18.88;;;;;;;10.64;37.04;95345.13;4957332;29;20203;-67
2022/02/25 08:35:31;;;;;;;35.05;19.52;;;;;;;11.03;36.15;95348.44;4956982;29;20199;-66
2022/02/25 08:37:58;;;;;;;42.38;21.55;;;;;;;10.83;34.87;95343.78;4957566;29;20234;-67
2022/02/25 08:40:27;;;;;;;57.65;21.75;;;;;;;11.24;35.10;95339.72;4957400;28;20203;-68
2022/02/25 08:42:54;;;;;;;50.80;25.98;;;;;;;11.53;35.14;95327.13;4957384;29;20196;-68
2022/02/25 08:45:22;;;;;;;39.42;19.98;;;;;;;11.46;35.10;95326.56;4957059;28;20191;-68
2022/02/25 08:47:49;;;;;;;38.03;21.02;;;;;;;11.96;34.29;95333.00;4957548;29;20247;-69
2022/02/25 08:50:19;;;;;;;29.65;19.10;;;;;;;12.04;33.92;95318.59;4956944;29;20263;-68
2022/02/25 08:52:49;;;;;;;39.70;20.23;;;;;;;11.86;34.82;95321.66;4957010;28;20199;-70
2022/02/25 08:55:16;;;;;;;41.78;21.40;;;;;;;12.17;34.91;95312.91;4957001;28;20192;-66
2022/02/25 08:57:44;;;;;;;31.80;20.63;;;;;;;12.03;34.11;95314.38;4957363;29;20573;-68
2022/02/25 09:00:16;;;;;;;36.87;20.70;;;;;;;12.37;33.50;95312.97;4956718;29;20443;-67
2022/02/25 09:05:29;;;;;;;27.37;17.70;;;;;;;12.27;33.10;95306.91;4957225;29;20298;-67
2022/02/25 09:07:56;;;;;;;28.37;16.70;;;;;;;12.11;33.60;95285.03;4957508;29;20494;-69
2022/02/25 09:10:24;;;;;;;26.27;16.53;;;;;;;12.48;33.45;95283.06;4939957;29;20499;-69
2022/02/25 09:12:52;;;;;;;27.90;17.20;;;;;;;12.60;33.06;95286.28;4956954;29;20518;-65
2022/02/25 09:15:25;;;;;;;32.23;16.63;;;;;;;12.75;32.59;95281.09;4956522;29;20463;-69
2022/02/25 09:17:57;;;;;;;23.67;15.37;;;;;;;13.04;31.77;95282.22;4956826;29;20432;-69
2022/02/25 09:20:26;;;;;;;32.50;19.40;;;;;;;13.14;32.47;95276.97;4953088;28;20451;-69
2022/02/25 09:22:54;;;;;;;31.03;18.10;;;;;;;13.21;31.03;95261.72;4954242;29;20439;-66
2022/02/25 09:25:27;;;;;;;34.30;18.03;;;;;;;13.11;31.61;95272.25;4953656;29;20836;-68
2022/02/25 09:27:54;;;;;;;30.90;17.90;;;;;;;13.64;31.41;95270.13;4954294;29;20478;-67
2022/02/25 09:30:22;;;;;;;28.27;17.33;;;;;;;13.57;30.88;95254.63;4953325;29;21041;-67
2022/02/25 09:32:49;;;;;;;27.07;15.10;;;;;;;13.85;30.70;95264.56;4954062;29;20448;-71
2022/02/25 09:35:15;;;;;;;27.53;16.40;;;;;;;13.59;30.46;95270.16;4953643;29;20432;-70
2022/02/25 09:37:42;;;;;;;26.07;16.30;;;;;;;13.94;30.37;95262.19;4954452;29;20570;-69
2022/02/25 09:40:13;;;;;;;29.17;15.67;;;;;;;14.16;29.79;95257.38;4953765;29;20884;-68
2022/02/25 09:42:42;;;;;;;30.97;16.90;;;;;;;14.09;30.09;95254.25;4956928;29;20440;-68
2022/02/25 09:45:11;;;;;;;27.60;17.13;;;;;;;14.06;30.04;95246.88;4955110;29;20771;-66
2022/02/25 09:47:38;;;;;;;37.20;17.97;;;;;;;14.19;29.48;95241.03;4953547;29;20439;-67
2022/02/25 09:50:09;;;;;;;31.23;18.30;;;;;;;13.96;29.82;95225.81;4953392;29;20487;-67
2022/02/25 09:52:37;;;;;;;34.20;18.77;;;;;;;14.68;29.57;95227.94;4953890;29;20438;-70
2022/02/25 09:55:25;;;;;;;31.87;17.10;;;;;;;14.94;28.63;95195.06;4953412;29;20832;-67
2022/02/25 09:57:55;;;;;;;37.93;16.87;;;;;;;15.36;29.34;95218.22;4953856;29;20447;-67
2022/02/25 10:00:22;;;;;;;33.90;17.03;;;;;;;14.78;27.59;95217.34;4952662;29;20482;-66
2022/02/25 10:02:53;;;;;;;32.87;18.00;;;;;;;14.94;29.20;95211.66;4953273;29;20502;-68
2022/02/25 10:05:25;;;;;;;27.73;15.83;;;;;;;15.34;29.15;95199.22;4952957;29;20440;-69
2022/02/25 10:07:52;;;;;;;31.10;16.30;;;;;;;14.74;27.58;95206.53;4953836;29;20457;-67
2022/02/25 10:10:27;;;;;;;30.90;17.80;;;;;;;15.41;27.47;95205.81;4952796;29;20835;-66
2022/02/25 10:13:00;;;;;;;28.30;15.93;;;;;;;15.30;27.04;95198.22;4953572;29;20432;-68
2022/02/25 10:15:29;;;;;;;29.97;16.87;;;;;;;16.08;27.29;95204.84;4952609;29;20476;-68
2022/02/25 10:18:09;;;;;;;25.87;13.73;;;;;;;16.08;27.06;95204.84;4953881;29;20880;-70
2022/02/25 10:20:36;;;;;;;22.90;12.90;;;;;;;16.21;26.43;95190.97;4955096;29;20970;-68
2022/02/25 10:23:23;;;;;;;19.40;11.33;;;;;;;16.13;26.01;95196.88;4953511;29;20439;-67
2022/02/25 10:25:51;;;;;;;15.07;8.87;;;;;;;16.38;26.23;95193.94;4952997;29;20474;-67
2022/02/25 10:28:29;;;;;;;15.40;8.73;;;;;;;16.06;25.56;95185.84;4953034;29;20451;-70
2022/02/25 10:31:18;;;;;;;13.80;8.17;;;;;;;16.13;26.32;95181.00;4952746;28;20553;-68
2022/02/25 10:33:47;;;;;;;11.63;7.57;;;;;;;15.91;24.85;95178.09;4952479;29;20510;-68
2022/02/25 10:36:27;;;;;;;16.27;9.10;;;;;;;15.99;25.81;95178.28;4952769;29;20492;-68
2022/02/25 10:38:54;;;;;;;20.20;10.83;;;;;;;15.41;25.90;95179.41;4952337;29;20510;-70
2022/02/25 10:41:21;;;;;;;18.37;10.30;;;;;;;16.03;26.24;95175.84;4952530;29;21341;-69
2022/02/25 10:43:51;;;;;;;16.20;9.60;;;;;;;15.97;26.23;95182.25;4952171;29;21455;-67
2022/02/25 10:46:22;;;;;;;19.40;9.60;;;;;;;15.82;26.20;95179.78;4952606;29;20495;-70
2022/02/25 10:48:50;;;;;;;10.83;7.03;;;;;;;16.10;25.35;95171.78;4951907;29;20444;-68
2022/02/25 10:51:34;;;;;;;13.77;7.53;;;;;;;15.87;24.83;95137.44;4952372;29;21080;-69
2022/02/25 10:54:04;;;;;;;17.10;7.77;;;;;;;15.98;24.55;95154.75;4952363;29;20535;-69
2022/02/25 10:56:44;;;;;;;13.23;7.80;;;;;;;15.90;24.71;95150.09;4952636;29;20521;-70
2022/02/25 10:59:12;;;;;;;13.57;6.43;;;;;;;15.95;24.57;95147.38;4952208;29;20447;-69
2022/02/25 11:01:40;;;;;;;11.63;7.07;;;;;;;16.37;24.03;95146.63;4951798;29;20439;-68
2022/02/25 11:04:13;;;;;;;10.60;6.53;;;;;;;16.01;23.57;95130.41;4951341;29;20451;-70
2022/02/25 11:06:42;;;;;;;14.23;7.60;;;;;;;15.74;24.07;95128.34;4952575;29;20458;-69
2022/02/25 11:09:09;;;;;;;12.87;7.10;;;;;;;15.72;23.26;95127.84;4951902;29;20479;-68
2022/02/25 11:11:36;;;;;;;13.90;7.50;;;;;;;15.51;23.07;95125.69;4952238;29;20487;-68
2022/02/25 11:14:05;;;;;;;14.77;7.73;;;;;;;15.32;23.09;95122.16;4951434;29;20587;-68
2022/02/25 11:16:33;;;;;;;13.23;7.43;;;;;;;15.28;23.92;95116.66;4951837;29;20440;-66
2022/02/25 11:19:23;;;;;;;14.27;7.47;;;;;;;15.68;24.83;95112.81;4951401;29;20455;-67
2022/02/25 11:21:52;;;;;;;11.50;8.00;;;;;;;16.35;23.59;95099.28;4952275;29;20478;-68
2022/02/25 11:24:19;;;;;;;13.13;7.40;;;;;;;16.57;23.47;95094.22;4951070;29;20447;-67
2022/02/25 11:26:52;;;;;;;12.57;7.73;;;;;;;16.01;22.82;95096.03;4951558;29;20531;-68
2022/02/25 11:29:23;;;;;;;12.83;8.13;;;;;;;15.62;22.44;95093.59;4951289;29;20505;-69
2022/02/25 11:31:56;;;;;;;11.10;7.20;;;;;;;16.30;22.94;95066.81;4952516;29;20521;-67
2022/02/25 11:34:24;;;;;;;13.73;7.60;;;;;;;16.19;22.57;95084.69;4954189;29;20515;-67
2022/02/25 11:36:51;;;;;;;15.93;6.80;;;;;;;16.77;23.73;95064.81;4951817;29;20442;-69
2022/02/25 11:39:29;;;;;;;16.77;7.43;;;;;;;17.15;23.04;95053.03;4951540;29;20444;-69